sensor_id;sensor_type;location;lat;lon;timestamp;P1;durP1;ratioP1;P2;durP2;ratioP2
13204;SDS011;6667;52.634;9.226;2022-08-19T00:02:17;6.80;;;4.10;;
13204;SDS011;6667;52.634;9.226;2022-08-19T00:04:43;5.70;;;3.70;;
13204;SDS011;6667;52.634;9.226;2022-08-19T00:07:14;5.30;;;3.83;;
13204;SDS011;6667;52.634;9.226;2022-08-19T00:09:40;5.40;;;3.90;;
13204;SDS011;6667;52.634;9.226;2022-08-19T00:12:07;3.85;;;3.45;;
13204;SDS011;6667;52.634;9.226;2022-08-19T00:14:34;6.50;;;4.15;;
13204;SDS011;6667;52.634;9.226;2022-08-19T00:17:00;6.20;;;3.75;;
13204;SDS011;6667;52.634;9.226;2022-08-19T00:19:28;3.80;;;3.28;;
13204;SDS011;6667;52.634;9.226;2022-08-19T00:21:55;5.35;;;4.00;;
13204;SDS011;6667;52.634;9.226;2022-08-19T00:24:23;5.55;;;3.90;;
13204;SDS011;6667;52.634;9.226;2022-08-19T00:26:50;5.20;;;3.45;;
13204;SDS011;6667;52.634;9.226;2022-08-19T00:29:18;6.05;;;3.78;;
13204;SDS011;6667;52.634;9.226;2022-08-19T00:31:47;5.65;;;3.55;;
13204;SDS011;6667;52.634;9.226;2022-08-19T00:34:15;4.00;;;3.58;;
13204;SDS011;6667;52.634;9.226;2022-08-19T00:36:42;7.28;;;3.90;;
13204;SDS011;6667;52.634;9.226;2022-08-19T00:39:09;5.65;;;3.08;;
13204;SDS011;6667;52.634;9.226;2022-08-19T00:41:38;7.78;;;3.90;;
13204;SDS011;6667;52.634;9.226;2022-08-19T00:44:07;7.43;;;4.68;;
13204;SDS011;6667;52.634;9.226;2022-08-19T00:46:35;5.43;;;3.63;;
13204;SDS011;6667;52.634;9.226;2022-08-19T00:49:06;4.50;;;3.55;;
13204;SDS011;6667;52.634;9.226;2022-08-19T00:51:36;4.00;;;3.53;;
13204;SDS011;6667;52.634;9.226;2022-08-19T00:54:03;4.80;;;4.15;;
13204;SDS011;6667;52.634;9.226;2022-08-19T00:56:30;7.15;;;4.18;;
13204;SDS011;6667;52.634;9.226;2022-08-19T00:58:58;4.20;;;3.50;;
13204;SDS011;6667;52.634;9.226;2022-08-19T01:01:27;5.32;;;4.15;;
13204;SDS011;6667;52.634;9.226;2022-08-19T01:03:53;6.07;;;3.65;;
13204;SDS011;6667;52.634;9.226;2022-08-19T01:06:20;4.50;;;3.85;;
13204;SDS011;6667;52.634;9.226;2022-08-19T01:08:47;6.07;;;3.97;;
13204;SDS011;6667;52.634;9.226;2022-08-19T01:11:13;5.82;;;4.18;;
13204;SDS011;6667;52.634;9.226;2022-08-19T01:13:40;4.43;;;3.35;;
13204;SDS011;6667;52.634;9.226;2022-08-19T01:16:11;7.90;;;3.70;;
13204;SDS011;6667;52.634;9.226;2022-08-19T01:18:40;6.43;;;4.80;;
13204;SDS011;6667;52.634;9.226;2022-08-19T01:21:09;7.13;;;4.50;;
13204;SDS011;6667;52.634;9.226;2022-08-19T01:23:43;9.95;;;5.32;;
13204;SDS011;6667;52.634;9.226;2022-08-19T01:26:11;9.10;;;5.25;;
13204;SDS011;6667;52.634;9.226;2022-08-19T01:28:40;9.50;;;5.82;;
13204;SDS011;6667;52.634;9.226;2022-08-19T01:31:09;7.70;;;5.97;;
13204;SDS011;6667;52.634;9.226;2022-08-19T01:33:38;7.43;;;5.55;;
13204;SDS011;6667;52.634;9.226;2022-08-19T01:36:06;8.82;;;6.47;;
13204;SDS011;6667;52.634;9.226;2022-08-19T01:38:36;12.88;;;6.85;;
13204;SDS011;6667;52.634;9.226;2022-08-19T01:41:05;10.07;;;6.45;;
13204;SDS011;6667;52.634;9.226;2022-08-19T01:43:32;9.15;;;6.50;;
13204;SDS011;6667;52.634;9.226;2022-08-19T01:45:59;10.48;;;7.10;;
13204;SDS011;6667;52.634;9.226;2022-08-19T01:48:32;9.25;;;5.97;;
13204;SDS011;6667;52.634;9.226;2022-08-19T01:51:00;11.15;;;6.35;;
13204;SDS011;6667;52.634;9.226;2022-08-19T01:53:26;9.32;;;6.82;;
13204;SDS011;6667;52.634;9.226;2022-08-19T01:55:53;9.13;;;6.82;;
13204;SDS011;6667;52.634;9.226;2022-08-19T01:58:23;8.88;;;6.18;;
13204;SDS011;6667;52.634;9.226;2022-08-19T02:00:54;7.50;;;6.45;;
13204;SDS011;6667;52.634;9.226;2022-08-19T02:03:20;9.40;;;6.60;;
13204;SDS011;6667;52.634;9.226;2022-08-19T02:05:47;11.00;;;6.80;;
13204;SDS011;6667;52.634;9.226;2022-08-19T02:08:19;10.13;;;7.28;;
13204;SDS011;6667;52.634;9.226;2022-08-19T02:10:45;8.02;;;6.60;;
13204;SDS011;6667;52.634;9.226;2022-08-19T02:13:13;10.60;;;7.63;;
13204;SDS011;6667;52.634;9.226;2022-08-19T02:15:41;14.35;;;7.40;;
13204;SDS011;6667;52.634;9.226;2022-08-19T02:18:07;8.35;;;6.80;;
13204;SDS011;6667;52.634;9.226;2022-08-19T02:20:34;10.25;;;7.13;;
13204;SDS011;6667;52.634;9.226;2022-08-19T02:23:02;10.48;;;6.57;;
13204;SDS011;6667;52.634;9.226;2022-08-19T02:25:29;8.93;;;7.15;;
13204;SDS011;6667;52.634;9.226;2022-08-19T02:27:56;12.05;;;7.88;;
13204;SDS011;6667;52.634;9.226;2022-08-19T02:30:22;6.72;;;5.80;;
13204;SDS011;6667;52.634;9.226;2022-08-19T02:32:51;9.00;;;6.85;;
13204;SDS011;6667;52.634;9.226;2022-08-19T02:35:18;9.57;;;7.15;;
13204;SDS011;6667;52.634;9.226;2022-08-19T02:37:46;8.73;;;6.90;;
13204;SDS011;6667;52.634;9.226;2022-08-19T02:40:31;9.55;;;6.88;;
13204;SDS011;6667;52.634;9.226;2022-08-19T02:42:59;8.80;;;6.90;;
13204;SDS011;6667;52.634;9.226;2022-08-19T02:45:27;9.63;;;7.25;;
13204;SDS011;6667;52.634;9.226;2022-08-19T02:47:58;7.90;;;6.20;;
13204;SDS011;6667;52.634;9.226;2022-08-19T02:50:25;9.43;;;6.47;;
13204;SDS011;6667;52.634;9.226;2022-08-19T02:52:51;10.52;;;7.13;;
13204;SDS011;6667;52.634;9.226;2022-08-19T02:55:18;10.30;;;7.13;;
13204;SDS011;6667;52.634;9.226;2022-08-19T02:57:45;11.93;;;6.95;;
13204;SDS011;6667;52.634;9.226;2022-08-19T03:00:12;7.90;;;6.82;;
13204;SDS011;6667;52.634;9.226;2022-08-19T03:02:40;9.20;;;6.60;;
13204;SDS011;6667;52.634;9.226;2022-08-19T03:05:09;8.63;;;6.93;;
13204;SDS011;6667;52.634;9.226;2022-08-19T03:07:36;7.73;;;6.77;;
13204;SDS011;6667;52.634;9.226;2022-08-19T03:10:03;9.10;;;6.17;;
13204;SDS011;6667;52.634;9.226;2022-08-19T03:12:30;8.93;;;5.85;;
13204;SDS011;6667;52.634;9.226;2022-08-19T03:14:57;9.07;;;6.60;;
13204;SDS011;6667;52.634;9.226;2022-08-19T03:17:23;8.43;;;6.13;;
13204;SDS011;6667;52.634;9.226;2022-08-19T03:19:50;9.65;;;6.57;;
13204;SDS011;6667;52.634;9.226;2022-08-19T03:22:18;8.77;;;6.07;;
13204;SDS011;6667;52.634;9.226;2022-08-19T03:24:44;9.27;;;6.23;;
13204;SDS011;6667;52.634;9.226;2022-08-19T03:27:11;10.20;;;6.27;;
13204;SDS011;6667;52.634;9.226;2022-08-19T03:29:39;9.37;;;6.63;;
13204;SDS011;6667;52.634;9.226;2022-08-19T03:32:06;9.97;;;7.33;;
13204;SDS011;6667;52.634;9.226;2022-08-19T03:34:33;8.25;;;6.72;;
13204;SDS011;6667;52.634;9.226;2022-08-19T03:37:03;8.77;;;6.80;;
13204;SDS011;6667;52.634;9.226;2022-08-19T03:39:33;8.95;;;6.93;;
13204;SDS011;6667;52.634;9.226;2022-08-19T03:42:03;9.93;;;6.57;;
13204;SDS011;6667;52.634;9.226;2022-08-19T03:44:30;8.43;;;6.53;;
13204;SDS011;6667;52.634;9.226;2022-08-19T03:46:59;12.02;;;6.85;;
13204;SDS011;6667;52.634;9.226;2022-08-19T03:49:27;8.87;;;7.13;;
13204;SDS011;6667;52.634;9.226;2022-08-19T03:51:55;11.87;;;7.33;;
13204;SDS011;6667;52.634;9.226;2022-08-19T03:54:25;9.82;;;7.50;;
13204;SDS011;6667;52.634;9.226;2022-08-19T03:56:54;11.20;;;6.93;;
13204;SDS011;6667;52.634;9.226;2022-08-19T03:59:24;11.03;;;8.17;;
13204;SDS011;6667;52.634;9.226;2022-08-19T04:01:53;11.40;;;7.67;;
13204;SDS011;6667;52.634;9.226;2022-08-19T04:04:21;11.93;;;8.30;;
13204;SDS011;6667;52.634;9.226;2022-08-19T04:06:48;11.95;;;8.40;;
13204;SDS011;6667;52.634;9.226;2022-08-19T04:09:16;10.73;;;7.00;;
13204;SDS011;6667;52.634;9.226;2022-08-19T04:11:44;13.07;;;7.80;;
13204;SDS011;6667;52.634;9.226;2022-08-19T04:14:15;9.53;;;7.13;;
13204;SDS011;6667;52.634;9.226;2022-08-19T04:16:43;10.77;;;7.47;;
13204;SDS011;6667;52.634;9.226;2022-08-19T04:19:11;11.30;;;7.70;;
13204;SDS011;6667;52.634;9.226;2022-08-19T04:21:39;9.53;;;7.57;;
13204;SDS011;6667;52.634;9.226;2022-08-19T04:24:06;12.73;;;7.70;;
13204;SDS011;6667;52.634;9.226;2022-08-19T04:26:33;10.70;;;8.20;;
13204;SDS011;6667;52.634;9.226;2022-08-19T04:29:03;11.30;;;8.20;;
13204;SDS011;6667;52.634;9.226;2022-08-19T04:31:33;11.37;;;8.00;;
13204;SDS011;6667;52.634;9.226;2022-08-19T04:34:00;10.87;;;7.67;;
13204;SDS011;6667;52.634;9.226;2022-08-19T04:36:30;10.47;;;7.20;;
13204;SDS011;6667;52.634;9.226;2022-08-19T04:38:59;11.90;;;8.37;;
13204;SDS011;6667;52.634;9.226;2022-08-19T04:41:29;8.53;;;6.87;;
13204;SDS011;6667;52.634;9.226;2022-08-19T04:44:13;11.63;;;7.63;;
13204;SDS011;6667;52.634;9.226;2022-08-19T04:46:44;9.57;;;7.83;;
13204;SDS011;6667;52.634;9.226;2022-08-19T04:49:12;10.67;;;7.17;;
13204;SDS011;6667;52.634;9.226;2022-08-19T04:51:40;10.67;;;7.43;;
13204;SDS011;6667;52.634;9.226;2022-08-19T04:54:07;11.93;;;8.27;;
13204;SDS011;6667;52.634;9.226;2022-08-19T04:56:34;9.80;;;7.27;;
13204;SDS011;6667;52.634;9.226;2022-08-19T04:59:01;12.07;;;7.03;;
13204;SDS011;6667;52.634;9.226;2022-08-19T05:01:29;12.43;;;7.88;;
13204;SDS011;6667;52.634;9.226;2022-08-19T05:03:59;10.00;;;7.53;;
13204;SDS011;6667;52.634;9.226;2022-08-19T05:06:28;10.77;;;7.85;;
13204;SDS011;6667;52.634;9.226;2022-08-19T05:08:57;11.50;;;8.10;;
13204;SDS011;6667;52.634;9.226;2022-08-19T05:11:25;10.10;;;8.13;;
13204;SDS011;6667;52.634;9.226;2022-08-19T05:13:54;9.43;;;7.10;;
13204;SDS011;6667;52.634;9.226;2022-08-19T05:16:23;10.67;;;7.70;;
13204;SDS011;6667;52.634;9.226;2022-08-19T05:18:51;12.50;;;8.23;;
13204;SDS011;6667;52.634;9.226;2022-08-19T05:21:37;11.23;;;7.33;;
13204;SDS011;6667;52.634;9.226;2022-08-19T05:24:22;11.63;;;8.20;;
13204;SDS011;6667;52.634;9.226;2022-08-19T05:26:50;11.30;;;7.57;;
13204;SDS011;6667;52.634;9.226;2022-08-19T05:29:21;10.90;;;7.13;;
13204;SDS011;6667;52.634;9.226;2022-08-19T05:31:50;9.23;;;7.20;;
13204;SDS011;6667;52.634;9.226;2022-08-19T05:34:18;10.87;;;7.77;;
13204;SDS011;6667;52.634;9.226;2022-08-19T05:36:48;11.53;;;8.33;;
13204;SDS011;6667;52.634;9.226;2022-08-19T05:39:20;9.13;;;7.23;;
13204;SDS011;6667;52.634;9.226;2022-08-19T05:41:47;10.17;;;7.50;;
13204;SDS011;6667;52.634;9.226;2022-08-19T05:44:16;11.50;;;8.70;;
13204;SDS011;6667;52.634;9.226;2022-08-19T05:46:43;13.10;;;8.70;;
13204;SDS011;6667;52.634;9.226;2022-08-19T05:49:12;9.47;;;7.10;;
13204;SDS011;6667;52.634;9.226;2022-08-19T05:51:40;12.53;;;8.17;;
13204;SDS011;6667;52.634;9.226;2022-08-19T05:54:08;10.97;;;8.17;;
13204;SDS011;6667;52.634;9.226;2022-08-19T05:56:36;11.37;;;7.70;;
13204;SDS011;6667;52.634;9.226;2022-08-19T05:59:03;9.73;;;7.23;;
13204;SDS011;6667;52.634;9.226;2022-08-19T06:01:36;12.80;;;8.63;;
13204;SDS011;6667;52.634;9.226;2022-08-19T06:04:04;12.00;;;8.83;;
13204;SDS011;6667;52.634;9.226;2022-08-19T06:06:31;11.37;;;9.07;;
13204;SDS011;6667;52.634;9.226;2022-08-19T06:08:59;11.83;;;9.00;;
13204;SDS011;6667;52.634;9.226;2022-08-19T06:11:33;13.07;;;9.90;;
13204;SDS011;6667;52.634;9.226;2022-08-19T06:14:02;14.57;;;9.77;;
13204;SDS011;6667;52.634;9.226;2022-08-19T06:16:33;11.77;;;8.97;;
13204;SDS011;6667;52.634;9.226;2022-08-19T06:19:00;11.60;;;8.65;;
13204;SDS011;6667;52.634;9.226;2022-08-19T06:21:29;11.77;;;7.35;;
13204;SDS011;6667;52.634;9.226;2022-08-19T06:23:56;9.23;;;7.27;;
13204;SDS011;6667;52.634;9.226;2022-08-19T06:26:24;9.35;;;8.02;;
13204;SDS011;6667;52.634;9.226;2022-08-19T06:28:52;9.15;;;7.35;;
13204;SDS011;6667;52.634;9.226;2022-08-19T06:31:20;7.83;;;6.83;;
13204;SDS011;6667;52.634;9.226;2022-08-19T06:33:48;11.52;;;7.18;;
13204;SDS011;6667;52.634;9.226;2022-08-19T06:36:16;7.75;;;6.43;;
13204;SDS011;6667;52.634;9.226;2022-08-19T06:38:44;8.35;;;6.20;;
13204;SDS011;6667;52.634;9.226;2022-08-19T06:41:11;7.13;;;5.30;;
13204;SDS011;6667;52.634;9.226;2022-08-19T06:43:37;8.30;;;5.55;;
13204;SDS011;6667;52.634;9.226;2022-08-19T06:46:10;11.35;;;5.90;;
13204;SDS011;6667;52.634;9.226;2022-08-19T06:48:37;6.78;;;5.10;;
13204;SDS011;6667;52.634;9.226;2022-08-19T06:51:04;8.07;;;5.63;;
13204;SDS011;6667;52.634;9.226;2022-08-19T06:53:31;6.10;;;5.05;;
13204;SDS011;6667;52.634;9.226;2022-08-19T06:55:58;6.60;;;4.53;;
13204;SDS011;6667;52.634;9.226;2022-08-19T06:58:27;7.38;;;4.80;;
13204;SDS011;6667;52.634;9.226;2022-08-19T07:00:56;6.05;;;4.32;;
13204;SDS011;6667;52.634;9.226;2022-08-19T07:03:27;7.32;;;4.63;;
13204;SDS011;6667;52.634;9.226;2022-08-19T07:05:55;5.82;;;4.57;;
13204;SDS011;6667;52.634;9.226;2022-08-19T07:08:22;5.68;;;4.00;;
13204;SDS011;6667;52.634;9.226;2022-08-19T07:10:51;6.32;;;4.80;;
13204;SDS011;6667;52.634;9.226;2022-08-19T07:13:19;4.72;;;4.28;;
13204;SDS011;6667;52.634;9.226;2022-08-19T07:15:46;8.10;;;5.28;;
13204;SDS011;6667;52.634;9.226;2022-08-19T07:18:15;5.10;;;4.43;;
13204;SDS011;6667;52.634;9.226;2022-08-19T07:20:43;4.45;;;3.75;;
13204;SDS011;6667;52.634;9.226;2022-08-19T07:23:10;6.18;;;2.95;;
13204;SDS011;6667;52.634;9.226;2022-08-19T07:25:37;4.88;;;3.53;;
13204;SDS011;6667;52.634;9.226;2022-08-19T07:28:05;4.32;;;3.78;;
13204;SDS011;6667;52.634;9.226;2022-08-19T07:30:35;4.55;;;3.40;;
13204;SDS011;6667;52.634;9.226;2022-08-19T07:33:03;5.30;;;3.78;;
13204;SDS011;6667;52.634;9.226;2022-08-19T07:35:30;3.88;;;3.47;;
13204;SDS011;6667;52.634;9.226;2022-08-19T07:37:59;4.15;;;3.33;;
13204;SDS011;6667;52.634;9.226;2022-08-19T07:40:28;6.95;;;4.47;;
13204;SDS011;6667;52.634;9.226;2022-08-19T07:42:55;5.97;;;4.32;;
13204;SDS011;6667;52.634;9.226;2022-08-19T07:45:22;6.40;;;5.10;;
13204;SDS011;6667;52.634;9.226;2022-08-19T07:47:49;5.10;;;4.50;;
13204;SDS011;6667;52.634;9.226;2022-08-19T07:50:17;4.72;;;4.13;;
13204;SDS011;6667;52.634;9.226;2022-08-19T07:52:45;5.35;;;4.47;;
13204;SDS011;6667;52.634;9.226;2022-08-19T07:55:13;5.78;;;4.90;;
13204;SDS011;6667;52.634;9.226;2022-08-19T07:57:39;5.72;;;4.95;;
13204;SDS011;6667;52.634;9.226;2022-08-19T08:00:06;4.25;;;3.85;;
13204;SDS011;6667;52.634;9.226;2022-08-19T08:02:34;8.73;;;4.30;;
13204;SDS011;6667;52.634;9.226;2022-08-19T08:05:00;5.68;;;4.85;;
13204;SDS011;6667;52.634;9.226;2022-08-19T08:07:44;4.85;;;4.18;;
13204;SDS011;6667;52.634;9.226;2022-08-19T08:10:30;5.35;;;4.22;;
13204;SDS011;6667;52.634;9.226;2022-08-19T08:12:57;6.07;;;4.45;;
13204;SDS011;6667;52.634;9.226;2022-08-19T08:15:24;6.38;;;4.32;;
13204;SDS011;6667;52.634;9.226;2022-08-19T08:17:50;5.47;;;4.93;;
13204;SDS011;6667;52.634;9.226;2022-08-19T08:20:17;6.25;;;5.60;;
13204;SDS011;6667;52.634;9.226;2022-08-19T08:22:45;8.45;;;5.38;;
13204;SDS011;6667;52.634;9.226;2022-08-19T08:25:32;8.40;;;5.78;;
13204;SDS011;6667;52.634;9.226;2022-08-19T08:28:00;5.13;;;4.63;;
13204;SDS011;6667;52.634;9.226;2022-08-19T08:30:28;6.07;;;5.10;;
13204;SDS011;6667;52.634;9.226;2022-08-19T08:32:57;7.13;;;4.63;;
13204;SDS011;6667;52.634;9.226;2022-08-19T08:35:24;7.57;;;5.10;;
13204;SDS011;6667;52.634;9.226;2022-08-19T08:37:52;8.00;;;5.38;;
13204;SDS011;6667;52.634;9.226;2022-08-19T08:40:21;5.03;;;4.53;;
13204;SDS011;6667;52.634;9.226;2022-08-19T08:42:57;7.25;;;5.35;;
13204;SDS011;6667;52.634;9.226;2022-08-19T08:45:29;4.75;;;4.25;;
13204;SDS011;6667;52.634;9.226;2022-08-19T08:48:00;6.72;;;5.03;;
13204;SDS011;6667;52.634;9.226;2022-08-19T08:50:40;4.45;;;4.03;;
13204;SDS011;6667;52.634;9.226;2022-08-19T08:53:09;5.07;;;3.80;;
13204;SDS011;6667;52.634;9.226;2022-08-19T08:55:39;5.18;;;4.18;;
13204;SDS011;6667;52.634;9.226;2022-08-19T08:58:09;4.90;;;3.70;;
13204;SDS011;6667;52.634;9.226;2022-08-19T09:00:44;5.53;;;3.65;;
13204;SDS011;6667;52.634;9.226;2022-08-19T09:03:15;5.20;;;3.28;;
13204;SDS011;6667;52.634;9.226;2022-08-19T09:06:00;6.65;;;3.70;;
13204;SDS011;6667;52.634;9.226;2022-08-19T09:08:33;5.22;;;4.70;;
13204;SDS011;6667;52.634;9.226;2022-08-19T09:11:10;4.88;;;3.90;;
13204;SDS011;6667;52.634;9.226;2022-08-19T09:13:44;5.22;;;4.22;;
13204;SDS011;6667;52.634;9.226;2022-08-19T09:16:27;4.15;;;3.70;;
13204;SDS011;6667;52.634;9.226;2022-08-19T09:18:57;5.15;;;4.10;;
13204;SDS011;6667;52.634;9.226;2022-08-19T09:21:27;4.32;;;3.58;;
13204;SDS011;6667;52.634;9.226;2022-08-19T09:23:53;4.78;;;3.45;;
13204;SDS011;6667;52.634;9.226;2022-08-19T09:26:22;4.55;;;3.70;;
13204;SDS011;6667;52.634;9.226;2022-08-19T09:28:51;4.80;;;3.67;;
13204;SDS011;6667;52.634;9.226;2022-08-19T09:31:20;6.72;;;3.58;;
13204;SDS011;6667;52.634;9.226;2022-08-19T09:33:48;5.72;;;3.05;;
13204;SDS011;6667;52.634;9.226;2022-08-19T09:36:16;3.22;;;2.47;;
13204;SDS011;6667;52.634;9.226;2022-08-19T09:38:44;4.28;;;3.08;;
13204;SDS011;6667;52.634;9.226;2022-08-19T09:41:12;3.25;;;2.95;;
13204;SDS011;6667;52.634;9.226;2022-08-19T09:43:40;3.92;;;3.17;;
13204;SDS011;6667;52.634;9.226;2022-08-19T09:46:11;5.90;;;3.17;;
13204;SDS011;6667;52.634;9.226;2022-08-19T09:48:38;6.38;;;2.40;;
13204;SDS011;6667;52.634;9.226;2022-08-19T09:51:06;3.10;;;2.45;;
13204;SDS011;6667;52.634;9.226;2022-08-19T09:53:35;4.18;;;2.72;;
13204;SDS011;6667;52.634;9.226;2022-08-19T09:56:03;3.63;;;2.88;;
13204;SDS011;6667;52.634;9.226;2022-08-19T09:58:31;2.67;;;2.47;;
13204;SDS011;6667;52.634;9.226;2022-08-19T10:00:59;4.07;;;2.65;;
13204;SDS011;6667;52.634;9.226;2022-08-19T10:03:29;2.78;;;2.28;;
13204;SDS011;6667;52.634;9.226;2022-08-19T10:05:58;4.68;;;2.47;;
13204;SDS011;6667;52.634;9.226;2022-08-19T10:08:26;2.58;;;1.95;;
13204;SDS011;6667;52.634;9.226;2022-08-19T10:10:54;2.33;;;2.08;;
13204;SDS011;6667;52.634;9.226;2022-08-19T10:13:23;3.63;;;2.88;;
13204;SDS011;6667;52.634;9.226;2022-08-19T10:15:51;4.13;;;2.45;;
13204;SDS011;6667;52.634;9.226;2022-08-19T10:18:20;1.92;;;1.77;;
13204;SDS011;6667;52.634;9.226;2022-08-19T10:20:49;4.85;;;2.80;;
13204;SDS011;6667;52.634;9.226;2022-08-19T10:23:17;3.83;;;2.88;;
13204;SDS011;6667;52.634;9.226;2022-08-19T10:25:45;2.92;;;2.35;;
13204;SDS011;6667;52.634;9.226;2022-08-19T10:28:12;3.70;;;2.30;;
13204;SDS011;6667;52.634;9.226;2022-08-19T10:30:39;2.97;;;2.30;;
13204;SDS011;6667;52.634;9.226;2022-08-19T10:33:06;3.10;;;2.38;;
13204;SDS011;6667;52.634;9.226;2022-08-19T10:35:33;3.88;;;2.53;;
13204;SDS011;6667;52.634;9.226;2022-08-19T10:38:02;3.45;;;2.58;;
13204;SDS011;6667;52.634;9.226;2022-08-19T10:40:29;3.13;;;2.40;;
13204;SDS011;6667;52.634;9.226;2022-08-19T10:42:56;4.70;;;2.03;;
13204;SDS011;6667;52.634;9.226;2022-08-19T10:45:23;3.47;;;2.20;;
13204;SDS011;6667;52.634;9.226;2022-08-19T10:47:50;4.18;;;2.30;;
13204;SDS011;6667;52.634;9.226;2022-08-19T10:50:18;3.38;;;2.20;;
13204;SDS011;6667;52.634;9.226;2022-08-19T10:53:04;6.28;;;2.00;;
13204;SDS011;6667;52.634;9.226;2022-08-19T10:55:33;3.15;;;1.67;;
13204;SDS011;6667;52.634;9.226;2022-08-19T10:58:19;3.08;;;1.70;;
13204;SDS011;6667;52.634;9.226;2022-08-19T11:00:50;5.07;;;1.92;;
13204;SDS011;6667;52.634;9.226;2022-08-19T11:03:18;4.47;;;1.85;;
13204;SDS011;6667;52.634;9.226;2022-08-19T11:05:44;1.90;;;1.70;;
13204;SDS011;6667;52.634;9.226;2022-08-19T11:08:12;2.92;;;2.17;;
13204;SDS011;6667;52.634;9.226;2022-08-19T11:10:40;2.45;;;2.00;;
13204;SDS011;6667;52.634;9.226;2022-08-19T11:13:09;3.15;;;2.13;;
13204;SDS011;6667;52.634;9.226;2022-08-19T11:15:35;2.30;;;1.50;;
13204;SDS011;6667;52.634;9.226;2022-08-19T11:18:03;2.97;;;1.63;;
13204;SDS011;6667;52.634;9.226;2022-08-19T11:20:30;2.72;;;1.58;;
13204;SDS011;6667;52.634;9.226;2022-08-19T11:22:57;2.53;;;1.60;;
13204;SDS011;6667;52.634;9.226;2022-08-19T11:25:25;2.33;;;1.40;;
13204;SDS011;6667;52.634;9.226;2022-08-19T11:27:51;1.85;;;1.48;;
13204;SDS011;6667;52.634;9.226;2022-08-19T11:30:18;2.00;;;1.48;;
13204;SDS011;6667;52.634;9.226;2022-08-19T11:32:44;1.45;;;1.35;;
13204;SDS011;6667;52.634;9.226;2022-08-19T11:35:12;1.85;;;1.38;;
13204;SDS011;6667;52.634;9.226;2022-08-19T11:37:39;1.13;;;1.02;;
13204;SDS011;6667;52.634;9.226;2022-08-19T11:40:06;3.35;;;1.58;;
13204;SDS011;6667;52.634;9.226;2022-08-19T11:42:35;1.48;;;1.38;;
13204;SDS011;6667;52.634;9.226;2022-08-19T11:45:21;5.97;;;1.73;;
13204;SDS011;6667;52.634;9.226;2022-08-19T11:47:47;2.22;;;1.40;;
13204;SDS011;6667;52.634;9.226;2022-08-19T11:50:14;6.43;;;1.60;;
13204;SDS011;6667;52.634;9.226;2022-08-19T11:52:43;2.17;;;1.45;;
13204;SDS011;6667;52.634;9.226;2022-08-19T11:55:12;2.38;;;1.52;;
13204;SDS011;6667;52.634;9.226;2022-08-19T11:57:41;3.47;;;1.73;;
13204;SDS011;6667;52.634;9.226;2022-08-19T12:00:09;2.47;;;1.50;;
13204;SDS011;6667;52.634;9.226;2022-08-19T12:02:37;1.85;;;1.45;;
13204;SDS011;6667;52.634;9.226;2022-08-19T12:05:04;2.60;;;1.50;;
13204;SDS011;6667;52.634;9.226;2022-08-19T12:07:32;2.95;;;1.27;;
13204;SDS011;6667;52.634;9.226;2022-08-19T12:09:59;3.83;;;1.25;;
13204;SDS011;6667;52.634;9.226;2022-08-19T12:12:25;2.05;;;1.50;;
13204;SDS011;6667;52.634;9.226;2022-08-19T12:14:54;2.50;;;1.15;;
13204;SDS011;6667;52.634;9.226;2022-08-19T12:17:23;0.95;;;0.95;;
13204;SDS011;6667;52.634;9.226;2022-08-19T12:19:51;3.17;;;1.10;;
13204;SDS011;6667;52.634;9.226;2022-08-19T12:22:18;3.95;;;1.95;;
13204;SDS011;6667;52.634;9.226;2022-08-19T12:24:45;2.25;;;1.20;;
13204;SDS011;6667;52.634;9.226;2022-08-19T12:27:12;1.50;;;1.10;;
13204;SDS011;6667;52.634;9.226;2022-08-19T12:29:39;1.35;;;0.90;;
13204;SDS011;6667;52.634;9.226;2022-08-19T12:32:07;1.95;;;1.00;;
13204;SDS011;6667;52.634;9.226;2022-08-19T12:34:35;1.63;;;1.17;;
13204;SDS011;6667;52.634;9.226;2022-08-19T12:37:03;2.67;;;1.20;;
13204;SDS011;6667;52.634;9.226;2022-08-19T12:39:33;2.40;;;1.00;;
13204;SDS011;6667;52.634;9.226;2022-08-19T12:42:01;3.00;;;0.85;;
13204;SDS011;6667;52.634;9.226;2022-08-19T12:44:28;2.67;;;0.98;;
13204;SDS011;6667;52.634;9.226;2022-08-19T12:46:55;2.85;;;1.10;;
13204;SDS011;6667;52.634;9.226;2022-08-19T12:49:23;1.90;;;1.15;;
13204;SDS011;6667;52.634;9.226;2022-08-19T12:51:50;1.67;;;1.30;;
13204;SDS011;6667;52.634;9.226;2022-08-19T12:54:17;2.28;;;1.20;;
13204;SDS011;6667;52.634;9.226;2022-08-19T12:56:43;2.85;;;1.40;;
13204;SDS011;6667;52.634;9.226;2022-08-19T12:59:10;2.25;;;1.08;;
13204;SDS011;6667;52.634;9.226;2022-08-19T13:01:37;2.85;;;1.17;;
13204;SDS011;6667;52.634;9.226;2022-08-19T13:04:04;2.28;;;1.55;;
13204;SDS011;6667;52.634;9.226;2022-08-19T13:06:32;2.85;;;1.58;;
13204;SDS011;6667;52.634;9.226;2022-08-19T13:08:58;1.73;;;1.17;;
13204;SDS011;6667;52.634;9.226;2022-08-19T13:11:25;3.15;;;1.30;;
13204;SDS011;6667;52.634;9.226;2022-08-19T13:13:52;1.35;;;1.20;;
13204;SDS011;6667;52.634;9.226;2022-08-19T13:16:20;3.33;;;1.02;;
13204;SDS011;6667;52.634;9.226;2022-08-19T13:18:47;3.13;;;1.08;;
13204;SDS011;6667;52.634;9.226;2022-08-19T13:21:17;1.50;;;0.95;;
13204;SDS011;6667;52.634;9.226;2022-08-19T13:23:47;0.77;;;0.77;;
13204;SDS011;6667;52.634;9.226;2022-08-19T13:26:14;0.60;;;0.60;;
13204;SDS011;6667;52.634;9.226;2022-08-19T13:28:42;2.45;;;0.85;;
13204;SDS011;6667;52.634;9.226;2022-08-19T13:31:31;1.20;;;0.77;;
13204;SDS011;6667;52.634;9.226;2022-08-19T13:34:17;1.02;;;0.70;;
13204;SDS011;6667;52.634;9.226;2022-08-19T13:36:46;1.55;;;0.50;;
13204;SDS011;6667;52.634;9.226;2022-08-19T13:39:14;0.77;;;0.70;;
13204;SDS011;6667;52.634;9.226;2022-08-19T13:41:43;2.10;;;0.60;;
13204;SDS011;6667;52.634;9.226;2022-08-19T13:44:12;1.23;;;0.70;;
13204;SDS011;6667;52.634;9.226;2022-08-19T13:46:39;1.33;;;0.80;;
13204;SDS011;6667;52.634;9.226;2022-08-19T13:49:09;2.88;;;0.70;;
13204;SDS011;6667;52.634;9.226;2022-08-19T13:51:36;0.60;;;0.60;;
13204;SDS011;6667;52.634;9.226;2022-08-19T13:54:04;0.60;;;0.50;;
13204;SDS011;6667;52.634;9.226;2022-08-19T13:56:32;0.50;;;0.50;;
13204;SDS011;6667;52.634;9.226;2022-08-19T13:58:59;0.60;;;0.60;;
13204;SDS011;6667;52.634;9.226;2022-08-19T14:01:25;1.65;;;0.73;;
13204;SDS011;6667;52.634;9.226;2022-08-19T14:03:52;0.85;;;0.70;;
13204;SDS011;6667;52.634;9.226;2022-08-19T14:06:19;0.75;;;0.68;;
13204;SDS011;6667;52.634;9.226;2022-08-19T14:08:46;0.75;;;0.60;;
13204;SDS011;6667;52.634;9.226;2022-08-19T14:11:13;0.70;;;0.65;;
13204;SDS011;6667;52.634;9.226;2022-08-19T14:13:42;0.70;;;0.50;;
13204;SDS011;6667;52.634;9.226;2022-08-19T14:16:10;2.40;;;0.80;;
13204;SDS011;6667;52.634;9.226;2022-08-19T14:18:38;0.57;;;0.57;;
13204;SDS011;6667;52.634;9.226;2022-08-19T14:21:05;0.93;;;0.40;;
13204;SDS011;6667;52.634;9.226;2022-08-19T14:23:32;2.75;;;0.55;;
13204;SDS011;6667;52.634;9.226;2022-08-19T14:26:04;0.63;;;0.63;;
13204;SDS011;6667;52.634;9.226;2022-08-19T14:28:32;0.85;;;0.52;;
13204;SDS011;6667;52.634;9.226;2022-08-19T14:31:00;0.98;;;0.60;;
13204;SDS011;6667;52.634;9.226;2022-08-19T14:33:27;1.67;;;0.50;;
13204;SDS011;6667;52.634;9.226;2022-08-19T14:35:54;0.60;;;0.60;;
13204;SDS011;6667;52.634;9.226;2022-08-19T14:38:20;1.38;;;0.93;;
13204;SDS011;6667;52.634;9.226;2022-08-19T14:40:47;1.60;;;0.70;;
13204;SDS011;6667;52.634;9.226;2022-08-19T14:43:14;1.20;;;0.60;;
13204;SDS011;6667;52.634;9.226;2022-08-19T14:45:42;2.53;;;1.17;;
13204;SDS011;6667;52.634;9.226;2022-08-19T14:48:10;0.75;;;0.75;;
13204;SDS011;6667;52.634;9.226;2022-08-19T14:50:37;0.93;;;0.70;;
13204;SDS011;6667;52.634;9.226;2022-08-19T14:53:05;0.75;;;0.75;;
13204;SDS011;6667;52.634;9.226;2022-08-19T14:55:33;1.17;;;0.93;;
13204;SDS011;6667;52.634;9.226;2022-08-19T14:58:00;0.88;;;0.88;;
13204;SDS011;6667;52.634;9.226;2022-08-19T15:00:27;2.67;;;0.80;;
13204;SDS011;6667;52.634;9.226;2022-08-19T15:02:57;1.10;;;0.82;;
13204;SDS011;6667;52.634;9.226;2022-08-19T15:05:25;1.23;;;0.80;;
13204;SDS011;6667;52.634;9.226;2022-08-19T15:07:52;1.40;;;0.70;;